createdAt,value
2022-10-26T00:00:50.858Z,16.38
2022-10-26T00:01:49.041Z,15.51
2022-10-26T00:02:45.990Z,14.52
2022-10-26T00:03:44.901Z,16.08
2022-10-26T00:04:41.677Z,16.51
2022-10-26T00:05:38.915Z,16.48
2022-10-26T00:06:35.679Z,16.24
2022-10-26T00:07:32.410Z,16.32
2022-10-26T00:08:29.136Z,16.49
2022-10-26T00:09:26.102Z,16.57
2022-10-26T00:10:22.861Z,16.39
2022-10-26T00:11:20.081Z,16.18
2022-10-26T00:12:16.776Z,16.14
2022-10-26T00:13:13.655Z,16.21
2022-10-26T00:14:10.368Z,15.94
2022-10-26T00:15:08.344Z,16.21
2022-10-26T00:16:14.533Z,16.29
2022-10-26T00:17:11.230Z,16.40
2022-10-26T00:18:08.266Z,15.54
2022-10-26T00:19:04.973Z,15.93
2022-10-26T00:20:02.406Z,16.69
2022-10-26T00:21:07.075Z,16.58
2022-10-26T00:22:04.329Z,16.33
2022-10-26T00:23:01.002Z,16.45
2022-10-26T00:23:59.784Z,16.36
2022-10-26T00:24:56.472Z,16.51
2022-10-26T00:25:56.854Z,16.56
2022-10-26T00:26:53.554Z,16.60
2022-10-26T00:27:50.552Z,16.50
2022-10-26T00:28:47.647Z,16.58
2022-10-26T00:29:44.315Z,16.30
2022-10-26T00:30:41.025Z,16.48
2022-10-26T00:31:38.119Z,16.14
2022-10-26T00:32:35.087Z,16.43
2022-10-26T00:33:32.816Z,16.30
2022-10-26T00:34:29.582Z,16.28
2022-10-26T00:35:44.580Z,16.02
2022-10-26T00:36:42.055Z,16.14
2022-10-26T00:37:38.753Z,16.12
2022-10-26T00:38:35.499Z,16.56
2022-10-26T00:39:32.250Z,16.46
2022-10-26T00:40:30.160Z,16.36
2022-10-26T00:41:31.449Z,16.43
2022-10-26T00:42:28.139Z,16.20
2022-10-26T00:43:24.827Z,16.34
2022-10-26T00:44:49.326Z,16.42
2022-10-26T00:45:47.265Z,16.17
2022-10-26T00:46:43.984Z,16.48
2022-10-26T00:47:47.413Z,16.55
2022-10-26T00:48:52.190Z,15.97
2022-10-26T00:49:54.303Z,16.01
2022-10-26T00:50:54.241Z,14.93
2022-10-26T00:51:53.385Z,15.52
2022-10-26T00:52:53.718Z,15.44
2022-10-26T00:53:52.653Z,15.76
2022-10-26T00:54:50.487Z,15.20
2022-10-26T00:55:51.072Z,15.55
2022-10-26T00:56:52.274Z,15.52
2022-10-26T00:57:54.163Z,15.30
2022-10-26T00:58:52.126Z,15.48
2022-10-26T00:59:54.277Z,15.05
2022-10-26T01:00:51.738Z,14.84
2022-10-26T01:01:49.520Z,15.38
2022-10-26T01:02:51.174Z,14.80
2022-10-26T01:03:49.393Z,15.43
2022-10-26T01:04:47.734Z,15.41
2022-10-26T01:05:47.765Z,15.32
2022-10-26T01:06:46.639Z,14.82
2022-10-26T01:07:45.819Z,15.17
2022-10-26T01:08:44.357Z,15.32
2022-10-26T01:09:41.795Z,15.57
2022-10-26T01:10:41.762Z,15.02
2022-10-26T01:11:38.569Z,15.09
2022-10-26T01:12:35.556Z,14.67
2022-10-26T01:13:36.062Z,15.53
2022-10-26T01:14:34.296Z,15.43
2022-10-26T01:15:57.796Z,15.40
2022-10-26T01:17:15.849Z,15.49
2022-10-26T01:18:34.495Z,15.49
2022-10-26T01:19:52.013Z,15.19
2022-10-26T01:20:57.491Z,14.95
2022-10-26T01:21:56.758Z,15.07
2022-10-26T01:23:18.642Z,15.14
2022-10-26T01:24:21.070Z,14.96
2022-10-26T01:25:35.334Z,14.77
2022-10-26T01:26:43.934Z,14.70
2022-10-26T01:27:49.216Z,14.40
2022-10-26T01:29:10.565Z,13.84
2022-10-26T01:30:29.075Z,14.76
2022-10-26T01:31:45.375Z,14.69
2022-10-26T01:32:45.153Z,14.87
2022-10-26T01:34:03.073Z,14.44
2022-10-26T01:35:28.010Z,14.13
2022-10-26T01:36:42.571Z,14.66
2022-10-26T01:37:47.867Z,14.63
2022-10-26T01:39:08.931Z,14.63
2022-10-26T01:40:21.442Z,14.94
2022-10-26T01:41:28.190Z,14.82
2022-10-26T01:42:28.389Z,14.80
2022-10-26T01:43:30.515Z,14.62
2022-10-26T01:44:49.717Z,13.64
2022-10-26T01:45:49.116Z,14.63
2022-10-26T01:46:51.776Z,14.37
2022-10-26T01:47:51.573Z,14.66
2022-10-26T01:48:55.447Z,14.58
2022-10-26T01:49:56.463Z,14.44
2022-10-26T01:50:57.533Z,14.31
2022-10-26T01:51:54.271Z,14.55
2022-10-26T01:52:51.072Z,14.60
2022-10-26T01:53:47.908Z,14.84
2022-10-26T01:54:44.594Z,14.90
2022-10-26T01:55:50.972Z,13.90
2022-10-26T01:56:53.274Z,14.85
2022-10-26T01:57:53.594Z,14.72
2022-10-26T01:59:15.620Z,14.52
2022-10-26T02:00:13.111Z,14.74
2022-10-26T02:01:36.100Z,14.96
2022-10-26T02:02:55.621Z,14.51
2022-10-26T02:04:48.931Z,14.69
2022-10-26T02:05:52.332Z,14.41
2022-10-26T02:06:54.815Z,14.49
2022-10-26T02:08:05.015Z,14.39
2022-10-26T02:09:18.753Z,13.16
2022-10-26T02:10:34.563Z,14.28
2022-10-26T02:11:42.810Z,14.22
2022-10-26T02:13:03.008Z,14.39
2022-10-26T02:14:22.637Z,14.50
2022-10-26T02:15:25.280Z,14.68
2022-10-26T02:16:30.156Z,13.91
2022-10-26T02:17:46.290Z,14.34
2022-10-26T02:18:51.901Z,14.49
2022-10-26T02:20:00.304Z,14.57
2022-10-26T02:21:05.547Z,14.56
2022-10-26T02:22:20.449Z,14.71
2022-10-26T02:23:21.485Z,14.79
2022-10-26T02:24:22.437Z,14.69
2022-10-26T02:25:25.961Z,14.77
2022-10-26T02:26:28.607Z,14.68
2022-10-26T02:27:34.852Z,14.22
2022-10-26T02:28:38.536Z,14.30
2022-10-26T02:29:39.001Z,13.49
2022-10-26T02:30:39.780Z,14.56
2022-10-26T02:31:39.850Z,14.33
2022-10-26T02:32:42.793Z,14.16
2022-10-26T02:34:53.777Z,14.51
2022-10-26T02:35:54.777Z,14.24
2022-10-26T02:36:57.270Z,14.56
2022-10-26T02:37:59.202Z,14.82
2022-10-26T02:38:59.707Z,15.00
2022-10-26T02:40:00.732Z,14.86
2022-10-26T02:40:58.297Z,15.02
2022-10-26T02:41:57.550Z,15.01
2022-10-26T02:43:00.744Z,14.74
2022-10-26T02:44:11.366Z,14.81
2022-10-26T02:45:14.929Z,14.91
2022-10-26T02:46:18.432Z,13.19
2022-10-26T02:47:16.845Z,14.18
2022-10-26T02:48:15.273Z,14.59
2022-10-26T02:49:12.018Z,14.71
2022-10-26T02:50:09.444Z,14.51
2022-10-26T02:51:17.320Z,14.38
2022-10-26T02:52:49.996Z,14.56
2022-10-26T02:53:56.455Z,14.64
2022-10-26T02:55:16.019Z,14.84
2022-10-26T02:56:22.519Z,14.10
2022-10-26T02:57:30.682Z,14.74
2022-10-26T02:58:36.791Z,14.56
2022-10-26T02:59:38.719Z,14.93
2022-10-26T03:00:35.762Z,13.76
2022-10-26T03:01:35.729Z,13.91
2022-10-26T03:02:32.499Z,13.30
2022-10-26T03:03:29.535Z,14.33
2022-10-26T03:04:35.154Z,14.85
2022-10-26T03:05:33.170Z,14.92
2022-10-26T03:06:29.891Z,14.89
2022-10-26T03:07:26.618Z,14.76
2022-10-26T03:08:23.848Z,14.75
2022-10-26T03:09:23.450Z,14.78
2022-10-26T03:10:22.989Z,14.85
2022-10-26T03:11:19.816Z,14.80
2022-10-26T03:12:16.821Z,14.26
2022-10-26T03:13:14.549Z,14.73
2022-10-26T03:14:11.265Z,14.40
2022-10-26T03:15:08.549Z,13.73
2022-10-26T03:16:05.396Z,14.75
2022-10-26T03:17:02.089Z,14.65
2022-10-26T03:17:58.774Z,14.45
2022-10-26T03:18:55.452Z,14.54
2022-10-26T03:19:52.213Z,14.51
2022-10-26T03:20:49.145Z,14.65
2022-10-26T03:21:45.867Z,14.60
2022-10-26T03:22:42.591Z,14.48
2022-10-26T03:23:39.346Z,13.96
2022-10-26T03:24:36.042Z,14.29
2022-10-26T03:25:32.705Z,14.81
2022-10-26T03:26:29.423Z,14.69
2022-10-26T03:27:27.051Z,14.72
2022-10-26T03:28:24.526Z,14.82
2022-10-26T03:29:21.269Z,14.89
2022-10-26T03:30:17.942Z,14.84
2022-10-26T03:31:14.726Z,14.41
2022-10-26T03:32:11.403Z,14.79
2022-10-26T03:33:08.091Z,14.89
2022-10-26T03:34:04.765Z,14.90
2022-10-26T03:35:01.515Z,13.95
2022-10-26T03:35:58.239Z,14.94
2022-10-26T03:36:54.898Z,14.97
2022-10-26T03:37:52.028Z,15.04
2022-10-26T03:38:49.001Z,14.98
2022-10-26T03:39:45.804Z,15.01
2022-10-26T03:40:42.569Z,15.04
2022-10-26T03:41:39.282Z,14.54
2022-10-26T03:42:39.772Z,15.16
2022-10-26T03:43:36.502Z,15.08
2022-10-26T03:44:33.178Z,14.97
2022-10-26T03:45:29.857Z,14.98
2022-10-26T03:46:26.552Z,14.68
2022-10-26T03:47:23.287Z,14.91
2022-10-26T03:48:20.001Z,14.62
2022-10-26T03:49:16.679Z,15.04
2022-10-26T03:50:16.206Z,14.93
2022-10-26T03:51:12.918Z,14.61
2022-10-26T03:52:09.656Z,14.66
2022-10-26T03:53:06.811Z,14.77
2022-10-26T03:54:03.753Z,14.30
2022-10-26T03:55:00.445Z,14.79
2022-10-26T03:55:57.138Z,14.59
2022-10-26T03:56:55.221Z,14.34
2022-10-26T03:57:52.162Z,14.56
2022-10-26T03:58:48.874Z,13.88
2022-10-26T03:59:45.559Z,14.65
2022-10-26T04:00:42.287Z,14.28
2022-10-26T04:01:40.178Z,14.62
2022-10-26T04:02:37.052Z,14.54
2022-10-26T04:03:33.792Z,14.43
2022-10-26T04:04:30.566Z,13.26
2022-10-26T04:05:29.410Z,14.04
2022-10-26T04:06:26.098Z,14.41
2022-10-26T04:07:22.824Z,14.06
2022-10-26T04:08:19.655Z,14.47
2022-10-26T04:09:16.356Z,14.08
2022-10-26T04:10:13.169Z,14.34
2022-10-26T04:11:10.111Z,14.27
2022-10-26T04:12:07.002Z,13.79
2022-10-26T04:13:03.912Z,14.15
2022-10-26T04:14:00.740Z,14.47
2022-10-26T04:15:01.035Z,14.49
2022-10-26T04:15:57.959Z,13.51
2022-10-26T04:16:54.655Z,14.65
2022-10-26T04:18:02.279Z,14.62
2022-10-26T04:18:58.987Z,14.30
2022-10-26T04:19:55.678Z,14.33
2022-10-26T04:20:52.375Z,14.46
2022-10-26T04:21:52.091Z,14.52
2022-10-26T04:22:48.832Z,13.28
2022-10-26T04:23:45.514Z,14.53
2022-10-26T04:24:42.199Z,14.62
2022-10-26T04:25:39.030Z,14.59
2022-10-26T04:26:35.712Z,14.57
2022-10-26T04:27:33.648Z,14.49
2022-10-26T04:28:30.336Z,14.51
2022-10-26T04:29:27.162Z,14.46
2022-10-26T04:30:24.731Z,14.36
2022-10-26T04:31:21.649Z,14.13
2022-10-26T04:32:18.371Z,14.22
2022-10-26T04:33:15.091Z,13.65
2022-10-26T04:34:12.755Z,14.35
2022-10-26T04:35:13.238Z,14.07
2022-10-26T04:36:12.352Z,14.43
2022-10-26T04:37:09.062Z,14.04
2022-10-26T04:38:07.086Z,14.27
2022-10-26T04:39:03.794Z,14.29
2022-10-26T04:40:00.577Z,14.00
2022-10-26T04:40:57.336Z,14.47
2022-10-26T04:41:54.865Z,14.12
2022-10-26T04:42:51.856Z,14.19
2022-10-26T04:43:48.856Z,14.22
2022-10-26T04:44:45.550Z,13.79
2022-10-26T04:45:42.246Z,14.15
2022-10-26T04:46:38.961Z,14.39
2022-10-26T04:47:35.672Z,14.30
2022-10-26T04:48:32.429Z,14.01
2022-10-26T04:49:29.180Z,14.00
2022-10-26T04:50:28.464Z,13.80
2022-10-26T04:51:26.994Z,14.39
2022-10-26T04:52:23.669Z,14.52
2022-10-26T04:53:20.375Z,14.44
2022-10-26T04:54:17.166Z,14.59
2022-10-26T04:55:13.947Z,14.55
2022-10-26T04:56:10.708Z,13.44
2022-10-26T04:57:07.420Z,14.38
2022-10-26T04:58:04.654Z,14.02
2022-10-26T04:59:01.473Z,14.48
2022-10-26T04:59:58.168Z,14.28
2022-10-26T05:00:55.481Z,14.48
2022-10-26T05:01:52.269Z,14.30
2022-10-26T05:02:49.050Z,14.10
2022-10-26T05:03:50.263Z,13.99
2022-10-26T05:04:47.598Z,12.95
2022-10-26T05:05:44.300Z,14.57
2022-10-26T05:06:41.133Z,14.09
2022-10-26T05:07:37.886Z,14.38
2022-10-26T05:08:34.591Z,13.92
2022-10-26T05:09:31.286Z,14.10
2022-10-26T05:10:28.869Z,13.28
2022-10-26T05:11:25.660Z,13.85
2022-10-26T05:12:22.532Z,14.25
2022-10-26T05:13:19.265Z,12.35
2022-10-26T05:14:16.089Z,14.25
2022-10-26T05:15:15.141Z,13.46
2022-10-26T05:16:11.828Z,14.04
2022-10-26T05:17:08.698Z,14.08
2022-10-26T05:18:06.095Z,13.98
2022-10-26T05:19:02.918Z,14.39
2022-10-26T05:20:00.572Z,14.16
2022-10-26T05:20:57.765Z,14.05
2022-10-26T05:21:54.482Z,14.21
2022-10-26T05:22:53.942Z,14.13
2022-10-26T05:23:53.822Z,13.97
2022-10-26T05:24:50.796Z,14.29
2022-10-26T05:25:48.910Z,14.40
2022-10-26T05:26:45.771Z,13.95
2022-10-26T05:27:42.471Z,14.23
2022-10-26T05:28:39.148Z,14.24
2022-10-26T05:29:35.897Z,14.25
2022-10-26T05:30:32.829Z,13.87
2022-10-26T05:31:29.507Z,14.30
2022-10-26T05:32:26.207Z,14.22
2022-10-26T05:33:22.975Z,14.29
2022-10-26T05:34:19.641Z,14.53
2022-10-26T05:35:16.319Z,14.32
2022-10-26T05:36:13.090Z,13.71
2022-10-26T05:37:09.760Z,14.45
2022-10-26T05:38:10.043Z,14.38
2022-10-26T05:39:06.879Z,13.97
2022-10-26T05:40:03.780Z,14.30
2022-10-26T05:41:01.665Z,14.37
2022-10-26T05:41:58.341Z,14.35
2022-10-26T05:43:03.472Z,12.76
2022-10-26T05:44:00.535Z,14.25
2022-10-26T05:44:57.279Z,14.33
2022-10-26T05:45:54.461Z,13.23
2022-10-26T05:46:51.240Z,13.49
2022-10-26T05:47:48.250Z,13.42
2022-10-26T05:48:45.178Z,13.16
2022-10-26T05:49:41.884Z,14.13
2022-10-26T05:50:38.627Z,14.08
2022-10-26T05:51:37.206Z,13.93
2022-10-26T05:52:45.750Z,14.15
2022-10-26T05:53:42.445Z,14.31
2022-10-26T05:54:39.126Z,14.51
2022-10-26T05:55:36.394Z,14.47
2022-10-26T05:56:39.766Z,14.45
2022-10-26T05:57:37.693Z,14.47
2022-10-26T05:58:34.712Z,14.56
2022-10-26T05:59:32.463Z,13.27
2022-10-26T06:00:30.300Z,14.54
2022-10-26T06:02:11.136Z,14.62
2022-10-26T06:03:38.570Z,14.70
2022-10-26T06:04:41.228Z,14.66
2022-10-26T06:05:46.698Z,14.55
2022-10-26T06:06:47.249Z,14.07
2022-10-26T06:07:44.242Z,13.90
2022-10-26T06:08:42.976Z,14.63
2022-10-26T06:09:41.386Z,14.45
2022-10-26T06:10:39.027Z,13.99
2022-10-26T06:11:36.080Z,14.75
2022-10-26T06:12:33.162Z,14.84
2022-10-26T06:13:30.410Z,13.88
2022-10-26T06:14:27.498Z,14.57
2022-10-26T06:15:24.483Z,14.72
2022-10-26T06:16:47.350Z,14.96
2022-10-26T06:17:57.243Z,15.21
2022-10-26T06:19:22.995Z,15.22
2022-10-26T06:20:55.946Z,14.85
2022-10-26T06:22:28.759Z,15.15
2022-10-26T06:23:54.072Z,15.31
2022-10-26T06:25:05.744Z,15.14
2022-10-26T06:26:27.106Z,15.18
2022-10-26T06:27:48.171Z,15.17
2022-10-26T06:28:47.276Z,15.25
2022-10-26T06:29:55.979Z,15.20
2022-10-26T06:30:52.879Z,15.36
2022-10-26T06:31:49.722Z,15.37
2022-10-26T06:32:47.271Z,15.16
2022-10-26T06:33:44.781Z,15.41
2022-10-26T06:34:48.809Z,14.91
2022-10-26T06:36:14.745Z,15.47
2022-10-26T06:37:13.219Z,14.95
2022-10-26T06:38:16.393Z,15.59
2022-10-26T06:39:16.626Z,15.59
2022-10-26T06:40:17.971Z,15.46
2022-10-26T06:41:16.340Z,15.48
2022-10-26T06:42:13.432Z,15.16
2022-10-26T06:43:21.346Z,15.72
2022-10-26T06:44:24.562Z,14.65
2022-10-26T06:45:21.777Z,15.70
2022-10-26T06:46:29.690Z,15.68
2022-10-26T06:47:42.473Z,15.73
2022-10-26T06:49:13.990Z,15.89
2022-10-26T06:50:22.513Z,15.86
2022-10-26T06:51:20.552Z,16.03
2022-10-26T06:52:41.496Z,15.92
2022-10-26T06:54:07.044Z,16.10
2022-10-26T06:55:05.304Z,16.11
2022-10-26T06:56:02.286Z,15.83
2022-10-26T06:56:59.387Z,16.12
2022-10-26T06:57:56.196Z,14.72
2022-10-26T06:58:56.287Z,15.95
2022-10-26T07:00:06.862Z,15.74
2022-10-26T07:01:03.853Z,15.95
2022-10-26T07:02:03.050Z,15.66
2022-10-26T07:03:03.039Z,16.21
2022-10-26T07:03:59.774Z,16.14
2022-10-26T07:04:56.483Z,16.09
2022-10-26T07:05:53.501Z,16.09
2022-10-26T07:06:50.322Z,16.11
2022-10-26T07:07:48.703Z,15.93
2022-10-26T07:08:45.625Z,15.90
2022-10-26T07:09:42.350Z,15.67
2022-10-26T07:10:39.486Z,15.70
2022-10-26T07:11:36.188Z,15.94
2022-10-26T07:12:33.280Z,14.01
2022-10-26T07:13:34.475Z,16.00
2022-10-26T07:14:31.252Z,16.35
2022-10-26T07:15:27.930Z,15.59
2022-10-26T07:16:24.747Z,16.37
2022-10-26T07:17:21.538Z,16.22
2022-10-26T07:18:18.322Z,16.25
2022-10-26T07:19:15.046Z,15.58
2022-10-26T07:20:13.698Z,16.39
2022-10-26T07:21:10.550Z,16.56
2022-10-26T07:22:07.721Z,15.85
2022-10-26T07:23:07.110Z,16.41
2022-10-26T07:24:04.144Z,16.38
2022-10-26T07:25:03.139Z,16.46
2022-10-26T07:26:00.663Z,16.03
2022-10-26T07:26:58.797Z,16.60
2022-10-26T07:28:00.259Z,16.54
2022-10-26T07:28:57.395Z,16.61
2022-10-26T07:29:54.121Z,16.60
2022-10-26T07:30:55.278Z,15.83
2022-10-26T07:32:51.509Z,16.45
2022-10-26T07:33:48.401Z,16.72
2022-10-26T07:34:45.163Z,16.83
2022-10-26T07:35:42.078Z,16.51
2022-10-26T07:36:39.486Z,16.76
2022-10-26T07:37:36.299Z,16.47
2022-10-26T07:38:33.023Z,16.82
2022-10-26T07:39:32.734Z,15.95
2022-10-26T07:40:29.545Z,16.55
2022-10-26T07:41:26.232Z,16.80
2022-10-26T07:42:23.486Z,16.40
2022-10-26T07:43:22.482Z,16.38
2022-10-26T07:44:19.303Z,17.15
2022-10-26T07:45:16.116Z,17.13
2022-10-26T07:46:13.190Z,17.23
2022-10-26T07:47:10.031Z,15.89
2022-10-26T07:48:06.908Z,17.14
2022-10-26T07:49:03.618Z,16.98
2022-10-26T07:50:00.350Z,16.94
2022-10-26T07:50:57.044Z,17.06
2022-10-26T07:51:53.846Z,17.00
2022-10-26T07:52:51.336Z,17.18
2022-10-26T07:53:48.277Z,16.53
2022-10-26T07:54:44.995Z,17.23
2022-10-26T07:55:41.726Z,16.81
2022-10-26T07:56:38.469Z,16.40
2022-10-26T07:57:35.266Z,17.04
2022-10-26T07:58:32.032Z,17.28
2022-10-26T07:59:28.857Z,17.09
2022-10-26T08:00:25.926Z,17.32
2022-10-26T08:01:22.935Z,16.88
2022-10-26T08:02:19.794Z,17.17
2022-10-26T08:03:17.920Z,16.20
2022-10-26T08:04:15.643Z,17.20
2022-10-26T08:05:12.326Z,17.34
2022-10-26T08:06:10.565Z,16.74
2022-10-26T08:07:07.286Z,17.10
2022-10-26T08:08:04.131Z,17.33
2022-10-26T08:09:00.861Z,17.41
2022-10-26T08:09:57.728Z,17.41
2022-10-26T08:10:54.503Z,17.27
2022-10-26T08:11:51.478Z,17.53
2022-10-26T08:12:48.173Z,16.99
2022-10-26T08:13:45.008Z,16.46
2022-10-26T08:14:42.537Z,17.56
2022-10-26T08:15:39.599Z,17.45
2022-10-26T08:16:40.247Z,17.69
2022-10-26T08:17:36.981Z,17.80
2022-10-26T08:18:33.826Z,17.33
2022-10-26T08:19:30.525Z,17.68
2022-10-26T08:20:45.879Z,17.51
2022-10-26T08:21:42.658Z,17.51
2022-10-26T08:22:39.410Z,17.72
2022-10-26T08:23:36.093Z,17.90
2022-10-26T08:24:32.916Z,17.74
2022-10-26T08:25:29.807Z,17.97
2022-10-26T08:26:26.487Z,17.54
2022-10-26T08:27:23.222Z,16.81
2022-10-26T08:28:19.945Z,18.03
2022-10-26T08:29:16.656Z,18.32
2022-10-26T08:30:13.499Z,17.73
2022-10-26T08:31:10.191Z,17.42
2022-10-26T08:32:07.305Z,18.17
2022-10-26T08:33:07.031Z,18.22
2022-10-26T08:34:04.473Z,18.25
2022-10-26T08:35:01.181Z,17.94
2022-10-26T08:36:04.851Z,18.21
2022-10-26T08:37:01.624Z,17.71
2022-10-26T08:37:59.084Z,18.04
2022-10-26T08:38:55.935Z,17.33
2022-10-26T08:39:55.244Z,18.23
2022-10-26T08:40:56.710Z,18.33
2022-10-26T08:42:04.254Z,15.74
2022-10-26T08:43:19.681Z,18.17
2022-10-26T08:44:26.003Z,18.49
2022-10-26T08:45:36.886Z,18.32
2022-10-26T08:46:42.477Z,18.05
2022-10-26T08:47:50.391Z,18.44
2022-10-26T08:49:19.320Z,18.50
2022-10-26T08:50:25.130Z,18.35
2022-10-26T08:51:37.523Z,18.30
2022-10-26T08:52:47.416Z,17.27
2022-10-26T08:54:14.228Z,18.65
2022-10-26T08:55:23.685Z,18.59
2022-10-26T08:56:26.045Z,18.76
2022-10-26T08:57:32.064Z,18.73
2022-10-26T08:58:37.911Z,18.87
2022-10-26T08:59:48.138Z,18.87
2022-10-26T09:00:50.098Z,18.75
2022-10-26T09:01:46.950Z,17.87
2022-10-26T09:02:43.726Z,18.57
2022-10-26T09:03:40.445Z,18.90
2022-10-26T09:04:37.207Z,18.08
2022-10-26T09:06:16.026Z,18.26
2022-10-26T09:07:37.373Z,18.89
2022-10-26T09:08:53.402Z,18.82
2022-10-26T09:10:17.296Z,18.99
2022-10-26T09:11:25.489Z,18.83
2022-10-26T09:12:58.285Z,18.39
2022-10-26T09:14:16.946Z,18.47
2022-10-26T09:15:31.834Z,18.98
2022-10-26T09:16:41.364Z,18.37
2022-10-26T09:17:50.854Z,19.15
2022-10-26T09:19:06.154Z,18.16
2022-10-26T09:20:26.845Z,19.17
2022-10-26T09:21:43.407Z,19.33
2022-10-26T09:22:57.830Z,19.16
2022-10-26T09:24:06.247Z,19.04
2022-10-26T09:25:18.540Z,18.97
2022-10-26T09:26:28.730Z,18.30
2022-10-26T09:27:29.491Z,19.41
2022-10-26T09:28:34.545Z,19.17
2022-10-26T09:29:43.426Z,18.95
2022-10-26T09:30:40.314Z,18.92
2022-10-26T09:31:47.115Z,19.34
2022-10-26T09:32:59.846Z,19.36
2022-10-26T09:34:02.282Z,18.82
2022-10-26T09:35:05.734Z,19.53
2022-10-26T09:36:17.989Z,18.89
2022-10-26T09:37:28.622Z,19.43
2022-10-26T09:38:43.560Z,19.45
2022-10-26T09:39:58.836Z,19.40
2022-10-26T09:41:17.390Z,19.58
2022-10-26T09:42:49.761Z,19.67
2022-10-26T09:44:01.510Z,19.13
2022-10-26T09:45:13.582Z,19.33
2022-10-26T09:46:20.930Z,19.62
2022-10-26T09:47:30.863Z,19.18
2022-10-26T09:48:36.854Z,19.64
2022-10-26T09:49:52.343Z,19.75
2022-10-26T09:50:51.361Z,19.55
2022-10-26T09:51:49.116Z,19.21
2022-10-26T09:52:46.024Z,19.38
2022-10-26T09:53:42.899Z,19.79
2022-10-26T09:54:39.646Z,19.81
2022-10-26T09:55:43.998Z,19.76
2022-10-26T09:56:44.879Z,19.89
2022-10-26T09:57:53.567Z,19.56
2022-10-26T09:59:12.263Z,19.76
2022-10-26T10:00:17.158Z,19.93
2022-10-26T10:01:35.594Z,20.16
2022-10-26T10:02:35.238Z,19.93
2022-10-26T10:03:32.867Z,19.81
2022-10-26T10:04:33.751Z,19.85
2022-10-26T10:05:50.719Z,19.79
2022-10-26T10:07:08.533Z,20.01
2022-10-26T10:08:16.441Z,19.98
2022-10-26T10:09:21.172Z,20.04
2022-10-26T10:10:23.906Z,20.10
2022-10-26T10:11:20.618Z,19.69
2022-10-26T10:12:21.394Z,19.91
2022-10-26T10:13:23.259Z,20.14
2022-10-26T10:14:20.372Z,20.13
2022-10-26T10:15:23.538Z,19.82
2022-10-26T10:16:25.150Z,20.22
2022-10-26T10:17:23.975Z,20.28
2022-10-26T10:18:23.699Z,20.06
2022-10-26T10:19:28.425Z,19.84
2022-10-26T10:20:32.638Z,19.96
2022-10-26T10:21:36.579Z,20.25
2022-10-26T10:22:33.333Z,20.14
2022-10-26T10:23:32.701Z,20.42
2022-10-26T10:24:36.929Z,20.44
2022-10-26T10:25:39.969Z,20.16
2022-10-26T10:26:57.302Z,19.74
2022-10-26T10:27:54.601Z,20.50
2022-10-26T10:29:00.146Z,20.47
2022-10-26T10:30:03.042Z,20.41
2022-10-26T10:31:18.029Z,20.13
2022-10-26T10:32:20.899Z,19.92
2022-10-26T10:33:17.586Z,20.21
2022-10-26T10:34:17.731Z,20.39
2022-10-26T10:35:29.611Z,20.48
2022-10-26T10:36:30.235Z,20.40
2022-10-26T10:37:44.323Z,20.45
2022-10-26T10:38:44.695Z,20.37
2022-10-26T10:39:42.939Z,19.56
2022-10-26T10:40:39.705Z,20.24
2022-10-26T10:41:37.252Z,20.36
2022-10-26T10:42:39.522Z,20.12
2022-10-26T10:43:36.487Z,20.08
2022-10-26T10:44:34.867Z,20.05
2022-10-26T10:45:33.262Z,20.08
2022-10-26T10:46:29.963Z,20.63
2022-10-26T10:47:37.804Z,20.33
2022-10-26T10:48:37.202Z,20.42
2022-10-26T10:49:36.228Z,19.86
2022-10-26T10:50:36.462Z,20.21
2022-10-26T10:51:40.326Z,20.71
2022-10-26T10:52:37.070Z,20.63
2022-10-26T10:53:36.850Z,20.73
2022-10-26T10:54:39.039Z,20.62
2022-10-26T10:55:36.072Z,20.65
2022-10-26T10:56:38.295Z,20.62
2022-10-26T10:57:43.847Z,20.75
2022-10-26T10:58:52.639Z,20.73
2022-10-26T11:00:00.259Z,20.46
2022-10-26T11:00:57.776Z,20.65
2022-10-26T11:02:06.783Z,20.85
2022-10-26T11:03:24.979Z,20.83
2022-10-26T11:04:50.125Z,20.91
2022-10-26T11:06:09.469Z,20.79
2022-10-26T11:07:10.035Z,20.91
2022-10-26T11:08:35.371Z,20.04
2022-10-26T11:09:36.611Z,20.46
2022-10-26T11:10:40.072Z,20.21
2022-10-26T11:12:02.747Z,20.42
2022-10-26T11:13:06.811Z,20.48
2022-10-26T11:14:25.458Z,20.94
2022-10-26T11:15:28.283Z,20.52
2022-10-26T11:16:33.385Z,20.89
2022-10-26T11:17:45.784Z,20.55
2022-10-26T11:18:58.259Z,20.56
2022-10-26T11:19:58.814Z,20.99
2022-10-26T11:21:05.296Z,20.80
2022-10-26T11:22:11.122Z,20.88
2022-10-26T11:23:33.646Z,20.85
2022-10-26T11:24:35.683Z,20.10
2022-10-26T11:25:47.499Z,20.94
2022-10-26T11:27:04.370Z,20.90
2022-10-26T11:28:15.057Z,20.89
2022-10-26T11:29:39.339Z,20.89
2022-10-26T11:30:47.055Z,20.87
2022-10-26T11:31:51.908Z,20.87
2022-10-26T11:33:00.601Z,21.03
2022-10-26T11:34:13.042Z,21.09
2022-10-26T11:35:28.033Z,21.06
2022-10-26T11:36:30.388Z,21.12
2022-10-26T11:37:44.681Z,21.14
2022-10-26T11:39:10.917Z,21.13
2022-10-26T11:40:16.760Z,21.19
2022-10-26T11:41:29.562Z,21.17
2022-10-26T11:42:48.456Z,20.32
2022-10-26T11:43:48.755Z,20.90
2022-10-26T11:45:17.265Z,21.26
2022-10-26T11:46:24.261Z,21.20
2022-10-26T11:47:42.822Z,21.23
2022-10-26T11:49:04.875Z,20.39
2022-10-26T11:50:17.450Z,21.26
2022-10-26T11:51:22.800Z,21.27
2022-10-26T11:52:22.671Z,21.29
2022-10-26T11:53:25.391Z,21.06
2022-10-26T11:54:41.493Z,21.34
2022-10-26T11:55:41.019Z,21.37
2022-10-26T11:56:46.356Z,21.40
2022-10-26T11:57:48.296Z,19.78
2022-10-26T11:58:46.387Z,21.46
2022-10-26T11:59:55.063Z,21.27
2022-10-26T12:01:03.718Z,21.49
2022-10-26T12:02:25.027Z,21.40
2022-10-26T12:03:33.601Z,20.81
2022-10-26T12:04:35.772Z,21.10
2022-10-26T12:05:32.406Z,21.32
2022-10-26T12:06:33.343Z,21.37
2022-10-26T12:07:33.787Z,21.35
2022-10-26T12:08:44.000Z,21.32
2022-10-26T12:09:45.072Z,21.24
2022-10-26T12:10:49.182Z,21.23
2022-10-26T12:11:58.592Z,21.28
2022-10-26T12:13:10.196Z,20.34
2022-10-26T12:14:19.168Z,20.40
2022-10-26T12:15:40.315Z,21.28
2022-10-26T12:17:12.602Z,21.29
2022-10-26T12:18:13.810Z,21.41
2022-10-26T12:19:20.332Z,21.47
2022-10-26T12:20:36.926Z,21.19
2022-10-26T12:21:34.912Z,20.62
2022-10-26T12:22:40.115Z,21.32
2022-10-26T12:23:51.210Z,21.42
2022-10-26T12:25:13.878Z,21.08
2022-10-26T12:26:23.321Z,21.42
2022-10-26T12:29:01.926Z,21.42
2022-10-26T12:30:17.289Z,21.31
2022-10-26T12:31:32.266Z,21.41
2022-10-26T12:32:31.774Z,21.36
2022-10-26T12:33:30.521Z,20.27
2022-10-26T12:34:30.231Z,21.37
2022-10-26T12:35:34.832Z,21.39
2022-10-26T12:36:47.320Z,21.25
2022-10-26T12:37:44.055Z,20.98
2022-10-26T12:38:40.792Z,21.31
2022-10-26T12:39:42.702Z,21.37
2022-10-26T12:40:41.864Z,20.25
2022-10-26T12:41:39.305Z,21.33
2022-10-26T12:42:41.843Z,21.26
2022-10-26T12:43:41.031Z,21.39
2022-10-26T12:44:42.162Z,21.37
2022-10-26T12:45:39.335Z,21.40
2022-10-26T12:46:40.552Z,21.19
2022-10-26T12:47:37.193Z,21.39
2022-10-26T12:48:43.805Z,21.38
2022-10-26T12:50:02.226Z,21.43
2022-10-26T12:51:21.771Z,21.56
2022-10-26T12:52:27.683Z,21.06
2022-10-26T12:53:26.319Z,21.16
2022-10-26T12:54:45.982Z,21.38
2022-10-26T12:55:45.709Z,21.40
2022-10-26T12:57:29.816Z,21.52
2022-10-26T12:58:53.304Z,21.54
2022-10-26T13:00:05.137Z,21.50
2022-10-26T13:01:01.762Z,21.52
2022-10-26T13:02:25.914Z,21.50
2022-10-26T13:03:28.430Z,21.41
2022-10-26T13:04:44.501Z,21.46
2022-10-26T13:05:59.932Z,20.74
2022-10-26T13:07:17.401Z,21.46
2022-10-26T13:08:16.124Z,21.58
2022-10-26T13:09:29.167Z,21.33
2022-10-26T13:10:27.022Z,21.26
2022-10-26T13:11:55.382Z,21.43
2022-10-26T13:13:00.612Z,21.59
2022-10-26T13:14:08.221Z,20.86
2022-10-26T13:15:19.541Z,21.44
2022-10-26T13:16:17.187Z,21.09
2022-10-26T13:18:43.824Z,21.67
2022-10-26T13:19:54.978Z,21.55
2022-10-26T13:21:11.581Z,21.50
2022-10-26T13:22:16.373Z,21.92
2022-10-26T13:23:25.939Z,21.97
2022-10-26T13:24:26.168Z,21.79
2022-10-26T13:25:27.780Z,21.53
2022-10-26T13:26:27.858Z,21.81
2022-10-26T13:27:56.808Z,21.56
2022-10-26T13:29:02.233Z,21.56
2022-10-26T13:30:04.649Z,21.59
2022-10-26T13:31:01.418Z,21.51
2022-10-26T13:31:59.973Z,21.55
2022-10-26T13:32:57.444Z,20.66
2022-10-26T13:34:01.437Z,21.15
2022-10-26T13:35:03.427Z,20.63
2022-10-26T13:36:02.141Z,21.52